createdAt,value
2018-06-28T00:01:15.361Z,19.30
2018-06-28T00:03:44.537Z,19.00
2018-06-28T00:06:13.678Z,19.20
2018-06-28T00:08:42.798Z,19.00
2018-06-28T00:11:11.937Z,19.10
2018-06-28T00:13:41.225Z,18.90
2018-06-28T00:16:10.353Z,18.70
2018-06-28T00:18:39.484Z,18.80
2018-06-28T00:21:08.672Z,18.80
2018-06-28T00:23:37.830Z,18.70
2018-06-28T00:26:06.949Z,18.80
2018-06-28T00:28:36.138Z,18.70
2018-06-28T00:31:05.248Z,18.30
2018-06-28T00:33:34.431Z,18.40
2018-06-28T00:36:03.652Z,18.30
2018-06-28T00:38:32.774Z,18.50
2018-06-28T00:41:01.849Z,18.20
2018-06-28T00:43:31.004Z,18.30
2018-06-28T00:46:00.106Z,18.20
2018-06-28T00:48:29.210Z,18.20
2018-06-28T00:50:58.392Z,18.20
2018-06-28T00:53:27.582Z,18.20
2018-06-28T00:55:56.514Z,18.20
2018-06-28T00:58:25.685Z,18.30
2018-06-28T01:00:54.902Z,18.40
2018-06-28T01:03:24.065Z,18.30
2018-06-28T01:05:53.240Z,18.20
2018-06-28T01:08:22.393Z,17.90
2018-06-28T01:10:51.506Z,18.00
2018-06-28T01:13:20.691Z,18.10
2018-06-28T01:15:49.910Z,18.20
2018-06-28T01:18:19.139Z,18.10
2018-06-28T01:20:48.401Z,18.00
2018-06-28T01:23:17.492Z,17.90
2018-06-28T01:25:46.640Z,17.80
2018-06-28T01:28:15.790Z,17.90
2018-06-28T01:30:45.049Z,17.80
2018-06-28T01:33:14.217Z,17.70
2018-06-28T01:35:43.310Z,17.50
2018-06-28T01:38:12.461Z,17.70
2018-06-28T01:40:41.569Z,17.60
2018-06-28T01:43:43.037Z,17.60
2018-06-28T01:46:12.270Z,17.60
2018-06-28T01:48:41.417Z,17.60
2018-06-28T01:51:10.611Z,17.40
2018-06-28T01:53:39.835Z,17.50
2018-06-28T01:56:08.966Z,17.60
2018-06-28T01:58:38.143Z,17.70
2018-06-28T02:01:07.321Z,17.40
2018-06-28T02:03:36.521Z,17.20
2018-06-28T02:06:05.728Z,17.50
2018-06-28T02:08:34.906Z,17.70
2018-06-28T02:11:04.042Z,17.80
2018-06-28T02:13:33.196Z,17.40
2018-06-28T02:16:02.545Z,17.50
2018-06-28T02:18:31.755Z,17.50
2018-06-28T02:21:00.868Z,17.40
2018-06-28T02:23:30.030Z,17.30
2018-06-28T02:25:59.160Z,17.60
2018-06-28T02:28:28.318Z,17.40
2018-06-28T02:30:57.495Z,17.40
2018-06-28T02:33:26.672Z,17.20
2018-06-28T02:35:55.862Z,17.50
2018-06-28T02:38:25.123Z,17.30
2018-06-28T02:40:54.244Z,17.40
2018-06-28T02:43:23.393Z,17.30
2018-06-28T02:45:52.570Z,17.50
2018-06-28T02:48:21.758Z,17.40
2018-06-28T02:50:50.900Z,17.50
2018-06-28T02:53:20.089Z,17.30
2018-06-28T02:55:49.241Z,17.50
2018-06-28T02:58:18.342Z,17.30
2018-06-28T03:00:47.542Z,17.10
2018-06-28T03:03:16.733Z,17.20
2018-06-28T03:05:45.918Z,17.30
2018-06-28T03:08:15.094Z,17.50
2018-06-28T03:10:44.259Z,17.40
2018-06-28T03:13:13.449Z,17.40
2018-06-28T03:15:42.622Z,17.50
2018-06-28T03:18:11.870Z,17.60
2018-06-28T03:20:41.070Z,17.80
2018-06-28T03:23:10.273Z,17.70
2018-06-28T03:25:39.385Z,17.70
2018-06-28T03:28:08.675Z,17.80
2018-06-28T03:30:37.817Z,17.80
2018-06-28T03:33:06.929Z,17.70
2018-06-28T03:35:36.090Z,17.90
2018-06-28T03:38:05.385Z,17.80
2018-06-28T03:40:34.363Z,17.80
2018-06-28T03:43:03.512Z,18.00
2018-06-28T03:45:32.725Z,17.90
2018-06-28T03:48:01.874Z,18.00
2018-06-28T03:50:31.022Z,18.00
2018-06-28T03:53:00.173Z,17.80
2018-06-28T03:55:29.266Z,17.80
2018-06-28T03:57:59.080Z,17.80
2018-06-28T04:00:28.334Z,18.00
2018-06-28T04:02:57.900Z,17.80
2018-06-28T04:05:27.116Z,18.00
2018-06-28T04:07:56.282Z,17.70
2018-06-28T04:10:25.398Z,17.90
2018-06-28T04:12:54.549Z,18.00
2018-06-28T04:15:23.660Z,18.00
2018-06-28T04:17:52.757Z,18.10
2018-06-28T04:20:21.859Z,18.00
2018-06-28T04:22:51.001Z,18.00
2018-06-28T04:25:20.141Z,18.10
2018-06-28T04:27:49.247Z,18.10
2018-06-28T04:30:18.455Z,18.40
2018-06-28T04:32:47.605Z,18.20
2018-06-28T04:35:16.773Z,18.30
2018-06-28T04:37:45.925Z,18.20
2018-06-28T04:40:15.078Z,18.40
2018-06-28T04:42:44.306Z,18.60
2018-06-28T04:45:13.533Z,18.60
2018-06-28T04:47:42.633Z,18.70
2018-06-28T04:50:11.742Z,18.60
2018-06-28T04:52:40.906Z,18.90
2018-06-28T04:55:10.013Z,19.00
2018-06-28T04:57:39.159Z,19.30
2018-06-28T05:00:08.353Z,19.30
2018-06-28T05:02:37.472Z,19.50
2018-06-28T05:05:06.889Z,19.30
2018-06-28T05:07:36.091Z,19.40
2018-06-28T05:10:05.346Z,19.80
2018-06-28T05:12:34.789Z,19.90
2018-06-28T05:15:03.949Z,19.70
2018-06-28T05:17:33.129Z,20.00
2018-06-28T05:20:02.335Z,20.00
2018-06-28T05:22:31.514Z,19.90
2018-06-28T05:25:00.623Z,20.10
2018-06-28T05:27:29.858Z,20.10
2018-06-28T05:29:59.053Z,20.00
2018-06-28T05:32:28.289Z,20.20
2018-06-28T05:34:57.499Z,20.30
2018-06-28T05:37:26.686Z,20.40
2018-06-28T05:39:56.644Z,20.60
2018-06-28T05:42:25.759Z,20.90
2018-06-28T05:44:54.937Z,21.00
2018-06-28T05:47:24.102Z,21.00
2018-06-28T05:49:53.221Z,21.10
2018-06-28T05:52:22.503Z,21.00
2018-06-28T05:54:51.610Z,21.20
2018-06-28T05:57:20.802Z,21.20
2018-06-28T05:59:49.968Z,21.30
2018-06-28T06:02:19.096Z,21.40
2018-06-28T06:04:48.242Z,21.30
2018-06-28T06:07:17.336Z,21.30
2018-06-28T06:09:46.470Z,21.40
2018-06-28T06:12:15.614Z,21.50
2018-06-28T06:14:44.817Z,21.70
2018-06-28T06:17:13.993Z,21.70
2018-06-28T06:19:43.170Z,21.80
2018-06-28T06:22:12.328Z,22.00
2018-06-28T06:24:41.470Z,21.90
2018-06-28T06:27:10.643Z,22.10
2018-06-28T06:29:39.802Z,22.40
2018-06-28T06:32:09.049Z,22.60
2018-06-28T06:34:38.208Z,22.60
2018-06-28T06:37:07.407Z,22.80
2018-06-28T06:39:36.517Z,22.80
2018-06-28T06:42:05.681Z,23.00
2018-06-28T06:44:34.917Z,23.10
2018-06-28T06:47:04.015Z,23.20
2018-06-28T06:49:33.213Z,23.50
2018-06-28T06:52:02.380Z,23.50
2018-06-28T06:54:31.560Z,23.70
2018-06-28T06:57:00.740Z,23.60
2018-06-28T06:59:29.899Z,23.70
2018-06-28T07:01:59.054Z,23.90
2018-06-28T07:04:28.229Z,23.90
2018-06-28T07:06:57.452Z,24.00
2018-06-28T07:09:26.617Z,24.00
2018-06-28T07:11:55.846Z,24.00
2018-06-28T07:14:24.973Z,24.30
2018-06-28T07:16:54.117Z,24.20
2018-06-28T07:19:23.221Z,24.50
2018-06-28T07:21:52.341Z,24.80
2018-06-28T07:24:21.710Z,24.90
2018-06-28T07:26:50.474Z,24.70
2018-06-28T07:29:19.642Z,25.10
2018-06-28T07:31:48.878Z,25.50
2018-06-28T07:34:18.039Z,25.20
2018-06-28T07:36:47.210Z,25.00
2018-06-28T07:39:16.443Z,25.30
2018-06-28T07:41:45.640Z,25.30
2018-06-28T07:44:14.746Z,25.30
2018-06-28T07:46:43.922Z,25.40
2018-06-28T07:49:12.976Z,25.50
2018-06-28T07:51:42.064Z,25.60
2018-06-28T07:54:11.267Z,25.50
2018-06-28T07:56:40.378Z,25.70
2018-06-28T07:59:09.543Z,25.90
2018-06-28T08:01:38.734Z,25.90
2018-06-28T08:04:07.966Z,26.10
2018-06-28T08:06:37.099Z,26.10
2018-06-28T08:09:07.950Z,25.80
2018-06-28T08:11:37.105Z,25.80
2018-06-28T08:14:06.244Z,25.80
2018-06-28T08:16:35.515Z,25.90
2018-06-28T08:19:04.665Z,25.90
2018-06-28T08:21:33.854Z,25.90
2018-06-28T08:24:02.917Z,25.90
2018-06-28T08:26:32.123Z,26.00
2018-06-28T08:29:01.265Z,26.00
2018-06-28T08:31:30.422Z,26.30
2018-06-28T08:33:59.575Z,26.40
2018-06-28T08:36:28.708Z,26.70
2018-06-28T08:38:57.869Z,26.90
2018-06-28T08:41:26.998Z,27.20
2018-06-28T08:43:56.146Z,27.50
2018-06-28T08:46:25.249Z,27.80
2018-06-28T08:48:54.489Z,28.00
2018-06-28T08:51:23.732Z,27.70
2018-06-28T08:53:52.878Z,27.70
2018-06-28T08:56:22.484Z,27.80
2018-06-28T08:58:51.612Z,27.70
2018-06-28T09:01:20.771Z,27.80
2018-06-28T09:03:49.973Z,28.00
2018-06-28T09:06:19.154Z,28.30
2018-06-28T09:08:48.302Z,28.60
2018-06-28T09:11:17.494Z,28.80
2018-06-28T09:13:46.662Z,28.60
2018-06-28T09:16:15.794Z,28.70
2018-06-28T09:18:44.901Z,29.00
2018-06-28T09:21:14.792Z,29.10
2018-06-28T09:23:43.951Z,29.00
2018-06-28T09:26:13.084Z,29.20
2018-06-28T09:28:42.271Z,29.10
2018-06-28T09:31:11.481Z,29.30
2018-06-28T09:33:40.620Z,29.20
2018-06-28T09:36:09.799Z,29.10
2018-06-28T09:38:38.912Z,29.40
2018-06-28T09:41:08.048Z,29.30
2018-06-28T09:43:37.184Z,29.60
2018-06-28T09:46:06.370Z,29.90
2018-06-28T09:48:35.530Z,29.70
2018-06-28T09:51:04.687Z,29.30
2018-06-28T09:53:33.842Z,29.50
2018-06-28T09:56:02.941Z,29.70
2018-06-28T09:58:32.128Z,30.00
2018-06-28T10:01:01.343Z,30.40
2018-06-28T10:03:30.554Z,30.50
2018-06-28T10:05:59.687Z,30.80
2018-06-28T10:08:28.815Z,31.10
2018-06-28T10:10:57.983Z,31.30
2018-06-28T10:13:27.079Z,31.60
2018-06-28T10:15:56.246Z,31.80
2018-06-28T10:18:25.340Z,32.40
2018-06-28T10:20:54.530Z,32.60
2018-06-28T10:23:23.719Z,32.30
2018-06-28T10:25:52.812Z,32.70
2018-06-28T10:28:22.009Z,32.80
2018-06-28T10:30:51.117Z,32.90
2018-06-28T10:33:20.320Z,32.10
2018-06-28T10:35:49.437Z,31.90
2018-06-28T10:38:18.562Z,32.10
2018-06-28T10:40:47.791Z,32.30
2018-06-28T10:43:16.892Z,32.50
2018-06-28T10:45:46.070Z,32.40
2018-06-28T10:48:15.211Z,32.60
2018-06-28T10:50:44.424Z,32.80
2018-06-28T10:53:13.514Z,32.50
2018-06-28T10:55:42.649Z,32.40
2018-06-28T10:58:11.862Z,32.70
2018-06-28T11:00:40.953Z,32.60
2018-06-28T11:03:10.056Z,33.20
2018-06-28T11:05:39.194Z,33.20
2018-06-28T11:08:08.349Z,33.30
2018-06-28T11:10:37.441Z,33.70
2018-06-28T11:13:06.597Z,33.90
2018-06-28T11:15:35.814Z,33.90
2018-06-28T11:18:04.952Z,34.70
2018-06-28T11:20:34.027Z,34.90
2018-06-28T11:23:03.145Z,35.80
2018-06-28T11:25:32.314Z,36.60
2018-06-28T11:28:01.491Z,36.60
2018-06-28T11:30:30.675Z,37.00
2018-06-28T11:32:59.810Z,37.30
2018-06-28T11:35:28.932Z,37.20
2018-06-28T11:37:58.084Z,36.90
2018-06-28T11:40:27.210Z,38.80
2018-06-28T11:42:56.338Z,39.60
2018-06-28T11:45:25.460Z,37.80
2018-06-28T11:47:54.591Z,36.40
2018-06-28T11:50:23.746Z,35.70
2018-06-28T11:52:52.856Z,35.10
2018-06-28T11:55:22.031Z,34.90
2018-06-28T11:57:51.216Z,34.70
2018-06-28T12:00:20.120Z,35.40
2018-06-28T12:02:49.337Z,36.00
2018-06-28T12:05:18.481Z,37.50
2018-06-28T12:07:47.661Z,36.60
2018-06-28T12:10:17.116Z,37.20
2018-06-28T12:12:46.225Z,37.30
2018-06-28T12:15:15.391Z,35.70
2018-06-28T12:17:44.484Z,35.10
2018-06-28T12:20:13.580Z,34.30
2018-06-28T12:22:43.939Z,34.40
2018-06-28T12:25:13.088Z,39.10
2018-06-28T12:27:42.275Z,40.10
2018-06-28T12:30:11.364Z,39.70
2018-06-28T12:32:40.586Z,41.60
2018-06-28T12:35:09.759Z,45.70
2018-06-28T12:37:38.858Z,48.50
2018-06-28T12:40:08.018Z,49.70
2018-06-28T12:42:37.171Z,44.40
2018-06-28T12:45:06.510Z,41.50
2018-06-28T12:48:01.147Z,38.70
2018-06-28T12:50:30.263Z,36.30
2018-06-28T12:53:07.038Z,35.10
2018-06-28T12:56:49.639Z,33.90
2018-06-28T12:59:20.808Z,32.50
2018-06-28T13:01:50.352Z,32.10
2018-06-28T13:04:19.529Z,31.90
2018-06-28T13:06:48.714Z,31.60
2018-06-28T13:09:18.342Z,31.40
2018-06-28T13:11:47.486Z,31.10
2018-06-28T13:14:16.583Z,31.50
2018-06-28T13:16:45.700Z,32.40
2018-06-28T13:19:14.880Z,33.90
2018-06-28T13:21:44.014Z,34.80
2018-06-28T13:24:13.143Z,40.40
2018-06-28T13:26:42.248Z,41.40
2018-06-28T13:29:11.435Z,40.40
2018-06-28T13:31:40.579Z,39.90
2018-06-28T13:34:09.765Z,40.10
2018-06-28T13:36:38.933Z,40.00
2018-06-28T13:39:08.246Z,40.60
2018-06-28T13:41:37.785Z,40.10
2018-06-28T13:44:06.534Z,38.50
2018-06-28T13:46:35.941Z,37.60
2018-06-28T13:49:05.375Z,36.60
2018-06-28T13:51:34.444Z,36.40
2018-06-28T13:54:03.562Z,36.80
2018-06-28T13:56:32.685Z,37.30
2018-06-28T13:59:02.006Z,38.30
2018-06-28T14:01:31.107Z,38.40
2018-06-28T14:04:00.223Z,37.20
2018-06-28T14:06:29.399Z,36.90
2018-06-28T14:08:58.534Z,38.00
2018-06-28T14:11:27.656Z,38.70
2018-06-28T14:13:56.793Z,39.10
2018-06-28T14:16:25.992Z,38.80
2018-06-28T14:18:55.179Z,37.10
2018-06-28T14:21:24.338Z,35.80
2018-06-28T14:23:53.574Z,34.90
2018-06-28T14:26:22.762Z,34.50
2018-06-28T14:28:51.965Z,34.80
2018-06-28T14:31:21.151Z,34.50
2018-06-28T14:33:50.360Z,34.20
2018-06-28T14:36:19.531Z,33.40
2018-06-28T14:38:48.653Z,32.80
2018-06-28T14:41:17.783Z,32.40
2018-06-28T14:43:46.884Z,31.60
2018-06-28T14:46:16.172Z,30.60
2018-06-28T14:48:45.292Z,30.00
2018-06-28T14:51:14.507Z,29.40
2018-06-28T14:53:43.707Z,29.20
2018-06-28T14:56:12.850Z,29.50
2018-06-28T14:58:42.090Z,29.80
2018-06-28T15:01:11.176Z,30.50
2018-06-28T15:03:40.297Z,31.50
2018-06-28T15:06:09.519Z,34.90
2018-06-28T15:08:38.705Z,35.70
2018-06-28T15:11:07.936Z,35.10
2018-06-28T15:13:37.080Z,34.30
2018-06-28T15:16:06.424Z,33.90
2018-06-28T15:18:35.593Z,33.30
2018-06-28T15:21:04.803Z,33.50
2018-06-28T15:23:33.926Z,34.00
2018-06-28T15:26:03.101Z,33.60
2018-06-28T15:28:32.240Z,33.10
2018-06-28T15:31:01.423Z,32.30
2018-06-28T15:33:30.643Z,31.80
2018-06-28T15:35:59.793Z,31.10
2018-06-28T15:38:28.929Z,30.70
2018-06-28T15:40:58.072Z,30.40
2018-06-28T15:43:27.233Z,30.50
2018-06-28T15:45:56.421Z,30.30
2018-06-28T15:48:25.562Z,30.50
2018-06-28T15:50:54.738Z,30.90
2018-06-28T15:53:23.905Z,31.20
2018-06-28T15:55:53.118Z,30.90
2018-06-28T15:58:22.461Z,31.40
2018-06-28T16:00:51.696Z,32.10
2018-06-28T16:03:20.858Z,33.90
2018-06-28T16:05:50.542Z,38.30
2018-06-28T16:08:19.711Z,41.60
2018-06-28T16:10:48.850Z,44.20
2018-06-28T16:13:17.946Z,45.40
2018-06-28T16:15:47.151Z,45.00
2018-06-28T16:18:22.554Z,42.40
2018-06-28T16:20:51.730Z,42.60
2018-06-28T16:23:20.921Z,42.80
2018-06-28T16:25:50.022Z,41.40
2018-06-28T16:28:19.205Z,41.00
2018-06-28T16:30:48.304Z,39.10
2018-06-28T16:33:17.654Z,37.40
2018-06-28T16:35:46.797Z,39.60
2018-06-28T16:38:15.976Z,41.50
2018-06-28T16:40:45.056Z,42.40
2018-06-28T16:43:14.332Z,43.60
2018-06-28T16:45:43.611Z,44.50
2018-06-28T16:48:12.754Z,45.50
2018-06-28T16:50:41.935Z,46.00
2018-06-28T16:53:11.182Z,44.80
2018-06-28T16:55:40.766Z,41.10
2018-06-28T16:58:10.660Z,39.20
2018-06-28T17:00:40.474Z,38.00
2018-06-28T17:03:13.990Z,36.50
2018-06-28T17:05:43.282Z,35.00
2018-06-28T17:08:12.496Z,34.30
2018-06-28T17:10:41.658Z,33.40
2018-06-28T17:13:10.572Z,32.30
2018-06-28T17:15:39.670Z,31.70
2018-06-28T17:18:08.856Z,31.10
2018-06-28T17:20:38.021Z,30.30
2018-06-28T17:23:07.140Z,29.90
2018-06-28T17:25:36.284Z,29.70
2018-06-28T17:28:05.625Z,31.10
2018-06-28T17:30:34.773Z,33.40
2018-06-28T17:33:03.919Z,33.50
2018-06-28T17:35:33.776Z,32.10
2018-06-28T17:38:02.893Z,31.20
2018-06-28T17:40:32.143Z,30.40
2018-06-28T17:43:01.467Z,29.50
2018-06-28T17:45:30.564Z,29.20
2018-06-28T17:47:59.660Z,28.80
2018-06-28T17:50:28.719Z,28.90
2018-06-28T17:52:57.860Z,28.60
2018-06-28T17:55:26.945Z,28.10
2018-06-28T17:57:56.150Z,27.80
2018-06-28T18:00:25.340Z,27.80
2018-06-28T18:02:54.481Z,27.50
2018-06-28T18:05:23.619Z,27.30
2018-06-28T18:07:52.839Z,27.20
2018-06-28T18:10:21.983Z,27.40
2018-06-28T18:12:51.284Z,27.30
2018-06-28T18:15:20.532Z,27.00
2018-06-28T18:17:49.587Z,26.60
2018-06-28T18:20:18.743Z,26.70
2018-06-28T18:22:47.964Z,26.70
2018-06-28T18:25:17.125Z,26.50
2018-06-28T18:27:46.282Z,26.40
2018-06-28T18:30:15.500Z,26.50
2018-06-28T18:32:44.652Z,26.40
2018-06-28T18:35:13.841Z,26.20
2018-06-28T18:37:42.795Z,26.00
2018-06-28T18:40:11.917Z,26.10
2018-06-28T18:42:41.074Z,25.90
2018-06-28T18:45:10.215Z,25.70
2018-06-28T18:47:39.363Z,25.80
2018-06-28T18:50:08.517Z,25.90
2018-06-28T18:52:37.717Z,25.90
2018-06-28T18:55:07.184Z,26.10
2018-06-28T18:57:36.345Z,25.80
2018-06-28T19:00:06.527Z,25.80
2018-06-28T19:02:35.711Z,25.60
2018-06-28T19:05:04.994Z,25.50
2018-06-28T19:07:34.094Z,25.40
2018-06-28T19:10:08.631Z,25.50
2018-06-28T19:12:37.837Z,25.30
2018-06-28T19:15:12.554Z,25.20
2018-06-28T19:17:41.779Z,25.20
2018-06-28T19:20:10.918Z,25.30
2018-06-28T19:22:45.369Z,25.10
2018-06-28T19:25:14.571Z,25.00
2018-06-28T19:27:43.735Z,24.90
2018-06-28T19:30:18.290Z,24.80
2018-06-28T19:32:47.469Z,24.90
2018-06-28T19:35:16.597Z,24.70
2018-06-28T19:37:48.859Z,24.70
2018-06-28T19:40:23.471Z,24.70
2018-06-28T19:43:00.228Z,24.50
2018-06-28T19:45:29.391Z,24.40
2018-06-28T19:47:58.559Z,24.40
2018-06-28T19:50:33.079Z,24.30
2018-06-28T19:53:10.501Z,24.20
2018-06-28T19:55:39.699Z,24.10
2018-06-28T19:58:08.907Z,24.10
2018-06-28T20:00:43.556Z,24.00
2018-06-28T20:03:17.968Z,24.00
2018-06-28T20:05:47.416Z,23.80
2018-06-28T20:08:16.577Z,23.80
2018-06-28T20:10:45.750Z,23.60
2018-06-28T20:13:20.159Z,23.50
2018-06-28T20:15:57.448Z,23.50
2018-06-28T20:18:31.924Z,23.10
2018-06-28T20:21:02.459Z,23.30
2018-06-28T20:23:31.721Z,23.10
2018-06-28T20:26:06.286Z,23.00
2018-06-28T20:28:40.695Z,22.80
2018-06-28T20:31:15.312Z,22.90
2018-06-28T20:33:49.724Z,22.80
2018-06-28T20:36:18.925Z,22.60
2018-06-28T20:38:48.230Z,22.60
2018-06-28T20:41:17.302Z,22.50
2018-06-28T20:43:46.482Z,22.60
2018-06-28T20:46:15.671Z,22.40
2018-06-28T20:48:44.760Z,22.40
2018-06-28T20:51:14.116Z,22.40
2018-06-28T20:53:43.029Z,22.60
2018-06-28T20:56:12.185Z,22.60
2018-06-28T20:58:41.333Z,22.50
2018-06-28T21:01:10.638Z,22.20
2018-06-28T21:03:39.833Z,22.10
2018-06-28T21:06:09.050Z,22.10
2018-06-28T21:08:38.499Z,22.10
2018-06-28T21:11:08.184Z,21.90
2018-06-28T21:13:37.698Z,21.80
2018-06-28T21:16:07.110Z,21.80
2018-06-28T21:18:36.609Z,21.70
2018-06-28T21:21:05.848Z,21.70
2018-06-28T21:23:34.929Z,21.40
2018-06-28T21:26:04.062Z,21.60
2018-06-28T21:28:33.197Z,21.50
2018-06-28T21:31:02.409Z,21.60
2018-06-28T21:33:31.509Z,21.50
2018-06-28T21:36:00.870Z,21.60
2018-06-28T21:38:30.044Z,21.40
2018-06-28T21:40:59.231Z,21.40
2018-06-28T21:43:28.344Z,21.40
2018-06-28T21:45:57.451Z,21.40
2018-06-28T21:48:26.608Z,21.20
2018-06-28T21:50:55.786Z,21.30
2018-06-28T21:53:25.007Z,21.10
2018-06-28T21:55:54.162Z,21.40
2018-06-28T21:58:23.312Z,21.20
2018-06-28T22:00:52.396Z,21.40
2018-06-28T22:03:21.503Z,21.40
2018-06-28T22:05:50.634Z,21.10
2018-06-28T22:08:19.805Z,21.40
2018-06-28T22:10:48.971Z,21.20
2018-06-28T22:13:18.151Z,21.10
2018-06-28T22:15:47.331Z,21.10
2018-06-28T22:18:16.462Z,21.20
2018-06-28T22:20:45.570Z,21.10
2018-06-28T22:23:14.752Z,21.10
2018-06-28T22:25:43.913Z,21.00
2018-06-28T22:28:13.094Z,21.00
2018-06-28T22:30:42.328Z,21.00
2018-06-28T22:33:11.484Z,21.10
2018-06-28T22:35:40.662Z,20.50
2018-06-28T22:38:09.829Z,20.60
2018-06-28T22:40:39.004Z,20.60
2018-06-28T22:43:08.196Z,20.70
2018-06-28T22:45:37.330Z,20.50
2018-06-28T22:48:06.659Z,20.50
2018-06-28T22:50:35.823Z,20.50
2018-06-28T22:53:04.944Z,20.40
2018-06-28T22:55:34.087Z,20.40
2018-06-28T22:58:03.244Z,20.30
2018-06-28T23:00:32.933Z,20.40
2018-06-28T23:03:02.063Z,20.40
2018-06-28T23:05:31.217Z,20.40
2018-06-28T23:08:00.435Z,20.30
2018-06-28T23:10:29.614Z,20.20
2018-06-28T23:12:58.791Z,20.30
2018-06-28T23:15:27.994Z,20.20
2018-06-28T23:17:57.111Z,20.20
2018-06-28T23:20:26.267Z,20.10
2018-06-28T23:22:55.410Z,20.10
2018-06-28T23:25:24.542Z,20.20
2018-06-28T23:27:53.701Z,20.10
2018-06-28T23:30:22.843Z,20.10
2018-06-28T23:32:52.038Z,19.90
2018-06-28T23:35:21.262Z,19.80
2018-06-28T23:37:50.362Z,19.70
2018-06-28T23:40:19.547Z,19.60
2018-06-28T23:42:48.693Z,19.60
2018-06-28T23:45:17.854Z,19.50
2018-06-28T23:47:47.065Z,19.50
2018-06-28T23:50:16.303Z,19.70
2018-06-28T23:52:45.530Z,19.50
2018-06-28T23:55:14.654Z,19.60
2018-06-28T23:57:43.779Z,19.60
